Airport View

Enter ICAO identifier to see the current METAR for that AWOS.

KFNL for example

KJDN 020048Z AUTO 28007KT 19/06 A2986

2 Sep 2014 01:48

Other Area AWOS: KGGW - KMLS - KOLF - KPO1

TAF KGGW 012320Z 0200/0224 28010KT P6SM VCSH BKN080 FM020300 VRB05KT P6SM SCT080 FM021800 27010KT P6SM SCT140